sensor_id;sensor_type;location;lat;lon;timestamp;temperature;humidity
28548;DHT22;68292;49.600;8.746;2023-12-28T00:00:06;15.60;48.60
28548;DHT22;68292;49.600;8.746;2023-12-28T00:02:35;15.60;48.60
28548;DHT22;68292;49.600;8.746;2023-12-28T00:05:04;15.60;48.60
28548;DHT22;68292;49.600;8.746;2023-12-28T00:07:33;15.60;48.50
28548;DHT22;68292;49.600;8.746;2023-12-28T00:10:03;15.70;48.50
28548;DHT22;68292;49.600;8.746;2023-12-28T00:12:33;15.70;48.60
28548;DHT22;68292;49.600;8.746;2023-12-28T00:15:04;15.70;48.40
28548;DHT22;68292;49.600;8.746;2023-12-28T00:17:33;15.70;48.30
28548;DHT22;68292;49.600;8.746;2023-12-28T00:20:01;15.70;48.50
28548;DHT22;68292;49.600;8.746;2023-12-28T00:22:30;15.70;48.50
28548;DHT22;68292;49.600;8.746;2023-12-28T00:24:59;15.70;48.20
28548;DHT22;68292;49.600;8.746;2023-12-28T00:27:28;15.80;48.90
28548;DHT22;68292;49.600;8.746;2023-12-28T00:30:00;15.80;48.10
28548;DHT22;68292;49.600;8.746;2023-12-28T00:32:32;15.80;48.10
28548;DHT22;68292;49.600;8.746;2023-12-28T00:35:01;15.80;48.10
28548;DHT22;68292;49.600;8.746;2023-12-28T00:37:29;15.80;47.90
28548;DHT22;68292;49.600;8.746;2023-12-28T00:39:58;15.80;47.70
28548;DHT22;68292;49.600;8.746;2023-12-28T00:42:27;15.80;47.70
28548;DHT22;68292;49.600;8.746;2023-12-28T00:44:56;15.80;47.60
28548;DHT22;68292;49.600;8.746;2023-12-28T00:47:26;15.80;47.50
28548;DHT22;68292;49.600;8.746;2023-12-28T00:49:55;15.90;47.50
28548;DHT22;68292;49.600;8.746;2023-12-28T00:52:23;15.80;47.50
28548;DHT22;68292;49.600;8.746;2023-12-28T00:54:52;15.90;47.40
28548;DHT22;68292;49.600;8.746;2023-12-28T00:57:21;15.90;47.40
28548;DHT22;68292;49.600;8.746;2023-12-28T00:59:50;15.90;47.40
28548;DHT22;68292;49.600;8.746;2023-12-28T01:02:18;15.90;47.40
28548;DHT22;68292;49.600;8.746;2023-12-28T01:04:49;15.90;47.30
28548;DHT22;68292;49.600;8.746;2023-12-28T01:07:18;15.90;47.00
28548;DHT22;68292;49.600;8.746;2023-12-28T01:09:47;15.90;47.10
28548;DHT22;68292;49.600;8.746;2023-12-28T01:12:16;16.00;47.10
28548;DHT22;68292;49.600;8.746;2023-12-28T01:14:45;16.00;47.10
28548;DHT22;68292;49.600;8.746;2023-12-28T01:17:14;16.00;47.00
28548;DHT22;68292;49.600;8.746;2023-12-28T01:19:43;16.00;47.10
28548;DHT22;68292;49.600;8.746;2023-12-28T01:22:13;16.00;47.00
28548;DHT22;68292;49.600;8.746;2023-12-28T01:24:45;16.00;46.80
28548;DHT22;68292;49.600;8.746;2023-12-28T01:27:17;16.00;46.90
28548;DHT22;68292;49.600;8.746;2023-12-28T01:29:46;16.00;47.00
28548;DHT22;68292;49.600;8.746;2023-12-28T01:32:15;16.00;47.00
28548;DHT22;68292;49.600;8.746;2023-12-28T01:34:44;16.00;47.00
28548;DHT22;68292;49.600;8.746;2023-12-28T01:37:14;16.00;46.90
28548;DHT22;68292;49.600;8.746;2023-12-28T01:39:43;16.00;46.60
28548;DHT22;68292;49.600;8.746;2023-12-28T01:42:11;16.00;46.90
28548;DHT22;68292;49.600;8.746;2023-12-28T01:44:40;16.00;46.90
28548;DHT22;68292;49.600;8.746;2023-12-28T01:47:09;16.00;46.80
28548;DHT22;68292;49.600;8.746;2023-12-28T01:49:37;16.10;46.90
28548;DHT22;68292;49.600;8.746;2023-12-28T01:52:07;16.10;47.00
28548;DHT22;68292;49.600;8.746;2023-12-28T01:54:38;16.10;47.10
28548;DHT22;68292;49.600;8.746;2023-12-28T01:57:07;16.10;46.80
28548;DHT22;68292;49.600;8.746;2023-12-28T01:59:37;16.10;47.00
28548;DHT22;68292;49.600;8.746;2023-12-28T02:02:06;16.10;46.90
28548;DHT22;68292;49.600;8.746;2023-12-28T02:04:35;16.20;46.80
28548;DHT22;68292;49.600;8.746;2023-12-28T02:07:05;16.10;46.80
28548;DHT22;68292;49.600;8.746;2023-12-28T02:09:36;16.20;46.80
28548;DHT22;68292;49.600;8.746;2023-12-28T02:12:06;16.20;46.70
28548;DHT22;68292;49.600;8.746;2023-12-28T02:14:35;16.20;46.70
28548;DHT22;68292;49.600;8.746;2023-12-28T02:17:06;16.20;46.80
28548;DHT22;68292;49.600;8.746;2023-12-28T02:19:43;16.20;46.60
28548;DHT22;68292;49.600;8.746;2023-12-28T02:22:14;16.30;46.80
28548;DHT22;68292;49.600;8.746;2023-12-28T02:24:59;16.30;46.70
28548;DHT22;68292;49.600;8.746;2023-12-28T02:27:29;16.30;46.30
28548;DHT22;68292;49.600;8.746;2023-12-28T02:29:58;16.30;46.80
28548;DHT22;68292;49.600;8.746;2023-12-28T02:32:35;16.30;46.60
28548;DHT22;68292;49.600;8.746;2023-12-28T02:35:19;16.30;46.30
28548;DHT22;68292;49.600;8.746;2023-12-28T02:37:53;16.40;46.50
28548;DHT22;68292;49.600;8.746;2023-12-28T02:40:26;16.30;46.40
28548;DHT22;68292;49.600;8.746;2023-12-28T02:42:56;16.40;46.30
28548;DHT22;68292;49.600;8.746;2023-12-28T02:45:24;16.40;46.60
28548;DHT22;68292;49.600;8.746;2023-12-28T02:47:54;16.40;46.60
28548;DHT22;68292;49.600;8.746;2023-12-28T02:50:23;16.40;46.60
28548;DHT22;68292;49.600;8.746;2023-12-28T02:52:52;16.40;46.60
28548;DHT22;68292;49.600;8.746;2023-12-28T02:55:21;16.40;46.60
28548;DHT22;68292;49.600;8.746;2023-12-28T02:57:53;16.40;46.60
28548;DHT22;68292;49.600;8.746;2023-12-28T03:00:23;16.50;46.60
28548;DHT22;68292;49.600;8.746;2023-12-28T03:02:52;16.50;46.70
28548;DHT22;68292;49.600;8.746;2023-12-28T03:05:21;16.50;46.70
28548;DHT22;68292;49.600;8.746;2023-12-28T03:07:50;16.50;46.70
28548;DHT22;68292;49.600;8.746;2023-12-28T03:10:18;16.50;46.80
28548;DHT22;68292;49.600;8.746;2023-12-28T03:12:47;16.50;46.60
28548;DHT22;68292;49.600;8.746;2023-12-28T03:15:18;16.50;46.80
28548;DHT22;68292;49.600;8.746;2023-12-28T03:17:49;16.50;46.60
28548;DHT22;68292;49.600;8.746;2023-12-28T03:20:18;16.50;46.70
28548;DHT22;68292;49.600;8.746;2023-12-28T03:22:48;16.60;46.60
28548;DHT22;68292;49.600;8.746;2023-12-28T03:25:19;16.60;46.60
28548;DHT22;68292;49.600;8.746;2023-12-28T03:27:48;16.60;46.60
28548;DHT22;68292;49.600;8.746;2023-12-28T03:30:19;16.60;46.70
28548;DHT22;68292;49.600;8.746;2023-12-28T03:32:48;16.60;46.70
28548;DHT22;68292;49.600;8.746;2023-12-28T03:35:17;16.60;46.80
28548;DHT22;68292;49.600;8.746;2023-12-28T03:37:46;16.60;46.80
28548;DHT22;68292;49.600;8.746;2023-12-28T03:40:15;16.60;46.70
28548;DHT22;68292;49.600;8.746;2023-12-28T03:42:46;16.60;46.80
28548;DHT22;68292;49.600;8.746;2023-12-28T03:45:15;16.50;46.70
28548;DHT22;68292;49.600;8.746;2023-12-28T03:47:45;16.60;46.70
28548;DHT22;68292;49.600;8.746;2023-12-28T03:50:16;16.60;46.50
28548;DHT22;68292;49.600;8.746;2023-12-28T03:52:45;16.50;46.60
28548;DHT22;68292;49.600;8.746;2023-12-28T03:55:14;16.50;46.60
28548;DHT22;68292;49.600;8.746;2023-12-28T03:57:43;16.60;46.80
28548;DHT22;68292;49.600;8.746;2023-12-28T04:00:14;16.50;46.90
28548;DHT22;68292;49.600;8.746;2023-12-28T04:02:45;16.50;46.90
28548;DHT22;68292;49.600;8.746;2023-12-28T04:05:16;16.50;47.10
28548;DHT22;68292;49.600;8.746;2023-12-28T04:07:45;16.50;47.30
28548;DHT22;68292;49.600;8.746;2023-12-28T04:10:15;16.50;47.50
28548;DHT22;68292;49.600;8.746;2023-12-28T04:12:47;16.60;47.90
28548;DHT22;68292;49.600;8.746;2023-12-28T04:15:15;16.50;48.00
28548;DHT22;68292;49.600;8.746;2023-12-28T04:17:45;16.60;48.20
28548;DHT22;68292;49.600;8.746;2023-12-28T04:20:14;16.50;48.30
28548;DHT22;68292;49.600;8.746;2023-12-28T04:22:44;16.50;48.40
28548;DHT22;68292;49.600;8.746;2023-12-28T04:25:13;16.60;48.70
28548;DHT22;68292;49.600;8.746;2023-12-28T04:27:43;16.50;48.60
28548;DHT22;68292;49.600;8.746;2023-12-28T04:30:12;16.50;48.90
28548;DHT22;68292;49.600;8.746;2023-12-28T04:32:42;16.50;49.10
28548;DHT22;68292;49.600;8.746;2023-12-28T04:35:12;16.50;49.00
28548;DHT22;68292;49.600;8.746;2023-12-28T04:37:42;16.60;49.20
28548;DHT22;68292;49.600;8.746;2023-12-28T04:40:12;16.50;49.20
28548;DHT22;68292;49.600;8.746;2023-12-28T04:42:42;16.50;49.20
28548;DHT22;68292;49.600;8.746;2023-12-28T04:45:10;16.50;49.10
28548;DHT22;68292;49.600;8.746;2023-12-28T04:47:39;16.50;49.10
28548;DHT22;68292;49.600;8.746;2023-12-28T04:50:09;16.50;49.20
28548;DHT22;68292;49.600;8.746;2023-12-28T04:52:39;16.50;49.30
28548;DHT22;68292;49.600;8.746;2023-12-28T04:55:08;16.50;49.60
28548;DHT22;68292;49.600;8.746;2023-12-28T04:57:37;16.50;49.60
28548;DHT22;68292;49.600;8.746;2023-12-28T05:00:07;16.50;49.70
28548;DHT22;68292;49.600;8.746;2023-12-28T05:02:36;16.50;49.90
28548;DHT22;68292;49.600;8.746;2023-12-28T05:05:05;16.50;50.00
28548;DHT22;68292;49.600;8.746;2023-12-28T05:07:36;16.50;50.00
28548;DHT22;68292;49.600;8.746;2023-12-28T05:10:07;16.50;50.00
28548;DHT22;68292;49.600;8.746;2023-12-28T05:12:36;16.50;50.20
28548;DHT22;68292;49.600;8.746;2023-12-28T05:15:11;16.50;50.20
28548;DHT22;68292;49.600;8.746;2023-12-28T05:17:40;16.50;50.40
28548;DHT22;68292;49.600;8.746;2023-12-28T05:20:10;16.50;50.40
28548;DHT22;68292;49.600;8.746;2023-12-28T05:22:39;16.50;50.60
28548;DHT22;68292;49.600;8.746;2023-12-28T05:25:09;16.50;50.70
28548;DHT22;68292;49.600;8.746;2023-12-28T05:27:39;16.50;51.40
28548;DHT22;68292;49.600;8.746;2023-12-28T05:30:10;16.50;50.80
28548;DHT22;68292;49.600;8.746;2023-12-28T05:32:39;16.50;50.90
28548;DHT22;68292;49.600;8.746;2023-12-28T05:35:08;16.50;50.90
28548;DHT22;68292;49.600;8.746;2023-12-28T05:37:37;16.50;51.00
28548;DHT22;68292;49.600;8.746;2023-12-28T05:40:06;16.50;51.10
28548;DHT22;68292;49.600;8.746;2023-12-28T05:42:37;16.50;51.20
28548;DHT22;68292;49.600;8.746;2023-12-28T05:45:07;16.50;51.20
28548;DHT22;68292;49.600;8.746;2023-12-28T05:47:36;16.50;51.40
28548;DHT22;68292;49.600;8.746;2023-12-28T05:50:06;16.50;51.50
28548;DHT22;68292;49.600;8.746;2023-12-28T05:52:35;16.50;51.80
28548;DHT22;68292;49.600;8.746;2023-12-28T05:55:04;16.40;51.90
28548;DHT22;68292;49.600;8.746;2023-12-28T05:57:35;16.50;52.10
28548;DHT22;68292;49.600;8.746;2023-12-28T06:00:05;16.50;52.30
28548;DHT22;68292;49.600;8.746;2023-12-28T06:02:39;16.40;52.30
28548;DHT22;68292;49.600;8.746;2023-12-28T06:05:08;16.50;52.40
28548;DHT22;68292;49.600;8.746;2023-12-28T06:07:37;16.50;52.50
28548;DHT22;68292;49.600;8.746;2023-12-28T06:10:07;16.40;52.70
28548;DHT22;68292;49.600;8.746;2023-12-28T06:12:38;16.40;52.90
28548;DHT22;68292;49.600;8.746;2023-12-28T06:15:07;16.40;53.10
28548;DHT22;68292;49.600;8.746;2023-12-28T06:17:37;16.50;53.10
28548;DHT22;68292;49.600;8.746;2023-12-28T06:20:06;16.40;53.10
28548;DHT22;68292;49.600;8.746;2023-12-28T06:22:37;16.40;53.30
28548;DHT22;68292;49.600;8.746;2023-12-28T06:25:06;16.40;53.40
28548;DHT22;68292;49.600;8.746;2023-12-28T06:27:35;16.40;53.50
28548;DHT22;68292;49.600;8.746;2023-12-28T06:30:06;16.40;53.60
28548;DHT22;68292;49.600;8.746;2023-12-28T06:32:35;16.40;54.00
28548;DHT22;68292;49.600;8.746;2023-12-28T06:35:06;16.40;53.80
28548;DHT22;68292;49.600;8.746;2023-12-28T06:37:35;16.40;53.90
28548;DHT22;68292;49.600;8.746;2023-12-28T06:40:05;16.40;54.00
28548;DHT22;68292;49.600;8.746;2023-12-28T06:42:35;16.40;54.00
28548;DHT22;68292;49.600;8.746;2023-12-28T06:45:06;16.40;54.10
28548;DHT22;68292;49.600;8.746;2023-12-28T06:47:35;16.40;54.40
28548;DHT22;68292;49.600;8.746;2023-12-28T06:50:05;16.40;54.10
28548;DHT22;68292;49.600;8.746;2023-12-28T06:52:35;16.40;54.20
28548;DHT22;68292;49.600;8.746;2023-12-28T06:55:04;16.40;54.20
28548;DHT22;68292;49.600;8.746;2023-12-28T06:57:32;16.40;54.30
28548;DHT22;68292;49.600;8.746;2023-12-28T07:00:01;16.40;54.30
28548;DHT22;68292;49.600;8.746;2023-12-28T07:02:33;16.40;54.30
28548;DHT22;68292;49.600;8.746;2023-12-28T07:05:02;16.40;54.50
28548;DHT22;68292;49.600;8.746;2023-12-28T07:07:31;16.40;54.40
28548;DHT22;68292;49.600;8.746;2023-12-28T07:10:00;16.40;54.50
28548;DHT22;68292;49.600;8.746;2023-12-28T07:12:28;16.40;54.50
28548;DHT22;68292;49.600;8.746;2023-12-28T07:14:57;16.30;54.50
28548;DHT22;68292;49.600;8.746;2023-12-28T07:17:26;16.40;54.60
28548;DHT22;68292;49.600;8.746;2023-12-28T07:19:56;16.40;54.60
28548;DHT22;68292;49.600;8.746;2023-12-28T07:22:25;16.40;54.80
28548;DHT22;68292;49.600;8.746;2023-12-28T07:24:53;16.40;54.70
28548;DHT22;68292;49.600;8.746;2023-12-28T07:27:22;16.40;54.80
28548;DHT22;68292;49.600;8.746;2023-12-28T07:29:51;16.40;54.70
28548;DHT22;68292;49.600;8.746;2023-12-28T07:32:19;16.40;54.80
28548;DHT22;68292;49.600;8.746;2023-12-28T07:34:50;16.40;54.80
28548;DHT22;68292;49.600;8.746;2023-12-28T07:37:20;16.40;54.90
28548;DHT22;68292;49.600;8.746;2023-12-28T07:39:49;16.40;55.00
28548;DHT22;68292;49.600;8.746;2023-12-28T07:42:18;16.30;54.90
28548;DHT22;68292;49.600;8.746;2023-12-28T07:44:47;16.40;55.00
28548;DHT22;68292;49.600;8.746;2023-12-28T07:47:16;16.40;55.00
28548;DHT22;68292;49.600;8.746;2023-12-28T07:49:44;16.40;55.10
28548;DHT22;68292;49.600;8.746;2023-12-28T07:52:13;16.40;55.10
28548;DHT22;68292;49.600;8.746;2023-12-28T07:54:43;16.40;55.10
28548;DHT22;68292;49.600;8.746;2023-12-28T07:57:12;16.40;55.30
28548;DHT22;68292;49.600;8.746;2023-12-28T07:59:41;16.40;55.10
28548;DHT22;68292;49.600;8.746;2023-12-28T08:02:10;16.40;55.10
28548;DHT22;68292;49.600;8.746;2023-12-28T08:04:38;16.40;55.20
28548;DHT22;68292;49.600;8.746;2023-12-28T08:07:07;16.40;55.20
28548;DHT22;68292;49.600;8.746;2023-12-28T08:09:36;16.40;55.30
28548;DHT22;68292;49.600;8.746;2023-12-28T08:12:07;16.40;55.30
28548;DHT22;68292;49.600;8.746;2023-12-28T08:14:35;16.40;55.40
28548;DHT22;68292;49.600;8.746;2023-12-28T08:17:04;16.40;55.30
28548;DHT22;68292;49.600;8.746;2023-12-28T08:19:33;16.40;55.40
28548;DHT22;68292;49.600;8.746;2023-12-28T08:22:02;16.40;55.40
28548;DHT22;68292;49.600;8.746;2023-12-28T08:24:31;16.40;55.40
28548;DHT22;68292;49.600;8.746;2023-12-28T08:27:00;16.40;55.40
28548;DHT22;68292;49.600;8.746;2023-12-28T08:29:31;16.40;55.40
28548;DHT22;68292;49.600;8.746;2023-12-28T08:32:00;16.40;55.60
28548;DHT22;68292;49.600;8.746;2023-12-28T08:34:29;16.40;55.40
28548;DHT22;68292;49.600;8.746;2023-12-28T08:36:58;16.40;55.40
28548;DHT22;68292;49.600;8.746;2023-12-28T08:39:27;16.40;55.40
28548;DHT22;68292;49.600;8.746;2023-12-28T08:41:56;16.40;55.50
28548;DHT22;68292;49.600;8.746;2023-12-28T08:44:24;16.40;55.60
28548;DHT22;68292;49.600;8.746;2023-12-28T08:46:54;16.40;55.60
28548;DHT22;68292;49.600;8.746;2023-12-28T08:49:23;16.50;55.80
28548;DHT22;68292;49.600;8.746;2023-12-28T08:51:52;16.50;55.70
28548;DHT22;68292;49.600;8.746;2023-12-28T08:54:21;16.40;55.70
28548;DHT22;68292;49.600;8.746;2023-12-28T08:56:50;16.50;55.80
28548;DHT22;68292;49.600;8.746;2023-12-28T08:59:21;16.50;55.90
28548;DHT22;68292;49.600;8.746;2023-12-28T09:01:54;16.50;55.80
28548;DHT22;68292;49.600;8.746;2023-12-28T09:04:23;16.50;56.00
28548;DHT22;68292;49.600;8.746;2023-12-28T09:06:52;16.50;56.40
28548;DHT22;68292;49.600;8.746;2023-12-28T09:09:21;16.50;55.80
28548;DHT22;68292;49.600;8.746;2023-12-28T09:11:49;16.50;55.90
28548;DHT22;68292;49.600;8.746;2023-12-28T09:14:18;16.50;55.80
28548;DHT22;68292;49.600;8.746;2023-12-28T09:16:47;16.50;55.80
28548;DHT22;68292;49.600;8.746;2023-12-28T09:19:18;16.50;55.90
28548;DHT22;68292;49.600;8.746;2023-12-28T09:21:46;16.50;55.90
28548;DHT22;68292;49.600;8.746;2023-12-28T09:24:15;16.50;55.80
28548;DHT22;68292;49.600;8.746;2023-12-28T09:26:46;16.50;55.90
28548;DHT22;68292;49.600;8.746;2023-12-28T09:29:14;16.50;55.80
28548;DHT22;68292;49.600;8.746;2023-12-28T09:31:43;16.50;55.90
28548;DHT22;68292;49.600;8.746;2023-12-28T09:34:14;16.50;55.90
28548;DHT22;68292;49.600;8.746;2023-12-28T09:36:45;16.50;55.90
28548;DHT22;68292;49.600;8.746;2023-12-28T09:39:13;16.50;56.00
28548;DHT22;68292;49.600;8.746;2023-12-28T09:41:46;16.50;55.90
28548;DHT22;68292;49.600;8.746;2023-12-28T09:44:17;16.60;56.10
28548;DHT22;68292;49.600;8.746;2023-12-28T09:46:47;16.60;55.90
28548;DHT22;68292;49.600;8.746;2023-12-28T09:49:17;16.60;55.90
28548;DHT22;68292;49.600;8.746;2023-12-28T09:51:47;16.60;55.90
28548;DHT22;68292;49.600;8.746;2023-12-28T09:54:17;16.50;55.90
28548;DHT22;68292;49.600;8.746;2023-12-28T09:56:46;16.60;55.90
28548;DHT22;68292;49.600;8.746;2023-12-28T09:59:15;16.50;55.90
28548;DHT22;68292;49.600;8.746;2023-12-28T10:01:46;16.50;56.00
28548;DHT22;68292;49.600;8.746;2023-12-28T10:04:16;16.60;56.00
28548;DHT22;68292;49.600;8.746;2023-12-28T10:06:46;16.60;56.10
28548;DHT22;68292;49.600;8.746;2023-12-28T10:09:15;16.50;56.00
28548;DHT22;68292;49.600;8.746;2023-12-28T10:11:47;16.60;56.10
28548;DHT22;68292;49.600;8.746;2023-12-28T10:14:16;16.60;56.10
28548;DHT22;68292;49.600;8.746;2023-12-28T10:16:45;16.60;56.20
28548;DHT22;68292;49.600;8.746;2023-12-28T10:19:15;16.60;56.20
28548;DHT22;68292;49.600;8.746;2023-12-28T10:21:43;16.60;56.20
28548;DHT22;68292;49.600;8.746;2023-12-28T10:24:14;16.60;56.20
28548;DHT22;68292;49.600;8.746;2023-12-28T10:26:41;16.60;56.40
28548;DHT22;68292;49.600;8.746;2023-12-28T10:29:10;16.60;56.30
28548;DHT22;68292;49.600;8.746;2023-12-28T10:31:42;16.60;56.30
28548;DHT22;68292;49.600;8.746;2023-12-28T10:34:12;16.60;56.30
28548;DHT22;68292;49.600;8.746;2023-12-28T10:36:41;16.60;56.30
28548;DHT22;68292;49.600;8.746;2023-12-28T10:39:12;16.60;56.30
28548;DHT22;68292;49.600;8.746;2023-12-28T10:41:49;16.60;56.40
28548;DHT22;68292;49.600;8.746;2023-12-28T10:44:20;16.60;56.50
28548;DHT22;68292;49.600;8.746;2023-12-28T10:46:57;16.60;56.40
28548;DHT22;68292;49.600;8.746;2023-12-28T10:49:26;16.60;56.50
28548;DHT22;68292;49.600;8.746;2023-12-28T10:51:55;16.60;56.30
28548;DHT22;68292;49.600;8.746;2023-12-28T10:54:37;16.60;56.40
28548;DHT22;68292;49.600;8.746;2023-12-28T10:57:20;16.60;56.70
28548;DHT22;68292;49.600;8.746;2023-12-28T11:00:00;16.70;56.70
28548;DHT22;68292;49.600;8.746;2023-12-28T11:02:38;16.70;56.60
28548;DHT22;68292;49.600;8.746;2023-12-28T11:05:08;16.70;56.60
28548;DHT22;68292;49.600;8.746;2023-12-28T11:07:38;16.70;57.00
28548;DHT22;68292;49.600;8.746;2023-12-28T11:10:09;16.70;56.50
28548;DHT22;68292;49.600;8.746;2023-12-28T11:12:39;16.70;56.50
28548;DHT22;68292;49.600;8.746;2023-12-28T11:15:09;16.70;56.40
28548;DHT22;68292;49.600;8.746;2023-12-28T11:17:39;16.70;56.50
28548;DHT22;68292;49.600;8.746;2023-12-28T11:20:09;16.70;56.40
28548;DHT22;68292;49.600;8.746;2023-12-28T11:22:39;16.70;56.40
28548;DHT22;68292;49.600;8.746;2023-12-28T11:25:16;16.70;56.30
28548;DHT22;68292;49.600;8.746;2023-12-28T11:27:45;16.80;56.60
28548;DHT22;68292;49.600;8.746;2023-12-28T11:30:15;16.80;56.30
28548;DHT22;68292;49.600;8.746;2023-12-28T11:32:44;16.80;56.30
28548;DHT22;68292;49.600;8.746;2023-12-28T11:35:16;16.80;56.30
28548;DHT22;68292;49.600;8.746;2023-12-28T11:37:46;16.80;56.40
28548;DHT22;68292;49.600;8.746;2023-12-28T11:40:19;16.80;56.40
28548;DHT22;68292;49.600;8.746;2023-12-28T11:42:52;16.80;56.40
28548;DHT22;68292;49.600;8.746;2023-12-28T11:45:22;16.80;56.40
28548;DHT22;68292;49.600;8.746;2023-12-28T11:48:02;16.80;56.30
28548;DHT22;68292;49.600;8.746;2023-12-28T11:50:31;16.80;56.50
28548;DHT22;68292;49.600;8.746;2023-12-28T11:53:01;16.80;56.20
28548;DHT22;68292;49.600;8.746;2023-12-28T11:55:31;16.80;56.20
28548;DHT22;68292;49.600;8.746;2023-12-28T11:58:00;16.80;56.30
28548;DHT22;68292;49.600;8.746;2023-12-28T12:00:29;16.80;56.30
28548;DHT22;68292;49.600;8.746;2023-12-28T12:02:58;16.80;56.20
28548;DHT22;68292;49.600;8.746;2023-12-28T12:05:27;16.80;56.20
28548;DHT22;68292;49.600;8.746;2023-12-28T12:07:56;16.80;56.20
28548;DHT22;68292;49.600;8.746;2023-12-28T12:10:25;16.80;56.20
28548;DHT22;68292;49.600;8.746;2023-12-28T12:12:55;16.80;56.20
28548;DHT22;68292;49.600;8.746;2023-12-28T12:15:25;16.80;56.20
28548;DHT22;68292;49.600;8.746;2023-12-28T12:17:53;16.80;56.20
28548;DHT22;68292;49.600;8.746;2023-12-28T12:20:22;16.80;56.20
28548;DHT22;68292;49.600;8.746;2023-12-28T12:22:51;16.80;56.30
28548;DHT22;68292;49.600;8.746;2023-12-28T12:25:20;16.80;56.30
28548;DHT22;68292;49.600;8.746;2023-12-28T12:27:49;16.80;56.30
28548;DHT22;68292;49.600;8.746;2023-12-28T12:30:20;16.80;56.30
28548;DHT22;68292;49.600;8.746;2023-12-28T12:32:49;16.90;56.40
28548;DHT22;68292;49.600;8.746;2023-12-28T12:35:18;16.80;56.30
28548;DHT22;68292;49.600;8.746;2023-12-28T12:37:49;16.80;56.30
28548;DHT22;68292;49.600;8.746;2023-12-28T12:40:18;16.90;56.40
28548;DHT22;68292;49.600;8.746;2023-12-28T12:42:52;16.80;56.40
28548;DHT22;68292;49.600;8.746;2023-12-28T12:45:24;16.90;56.80
28548;DHT22;68292;49.600;8.746;2023-12-28T12:47:52;16.90;56.70
28548;DHT22;68292;49.600;8.746;2023-12-28T12:50:21;16.80;56.60
28548;DHT22;68292;49.600;8.746;2023-12-28T12:52:50;16.90;56.80
28548;DHT22;68292;49.600;8.746;2023-12-28T12:55:19;16.90;56.90
28548;DHT22;68292;49.600;8.746;2023-12-28T12:57:48;16.80;56.90
28548;DHT22;68292;49.600;8.746;2023-12-28T13:00:17;16.80;57.70
28548;DHT22;68292;49.600;8.746;2023-12-28T13:02:49;16.80;57.10
28548;DHT22;68292;49.600;8.746;2023-12-28T13:05:21;16.80;57.30
28548;DHT22;68292;49.600;8.746;2023-12-28T13:07:49;16.80;57.20
28548;DHT22;68292;49.600;8.746;2023-12-28T13:10:18;16.80;57.20
28548;DHT22;68292;49.600;8.746;2023-12-28T13:12:47;16.80;57.30
28548;DHT22;68292;49.600;8.746;2023-12-28T13:15:16;16.70;57.30
28548;DHT22;68292;49.600;8.746;2023-12-28T13:17:45;16.80;57.50
28548;DHT22;68292;49.600;8.746;2023-12-28T13:20:15;16.80;57.60
28548;DHT22;68292;49.600;8.746;2023-12-28T13:22:44;16.80;57.70
28548;DHT22;68292;49.600;8.746;2023-12-28T13:25:12;16.70;57.60
28548;DHT22;68292;49.600;8.746;2023-12-28T13:27:41;16.70;57.60
28548;DHT22;68292;49.600;8.746;2023-12-28T13:30:12;16.70;57.70
28548;DHT22;68292;49.600;8.746;2023-12-28T13:32:41;16.70;57.80
28548;DHT22;68292;49.600;8.746;2023-12-28T13:35:10;16.70;57.90
28548;DHT22;68292;49.600;8.746;2023-12-28T13:37:40;16.70;57.90
28548;DHT22;68292;49.600;8.746;2023-12-28T13:40:10;16.70;58.00
28548;DHT22;68292;49.600;8.746;2023-12-28T13:42:39;16.70;57.90
28548;DHT22;68292;49.600;8.746;2023-12-28T13:45:08;16.70;57.90
28548;DHT22;68292;49.600;8.746;2023-12-28T13:47:37;16.70;58.00
28548;DHT22;68292;49.600;8.746;2023-12-28T13:50:07;16.70;57.90
28548;DHT22;68292;49.600;8.746;2023-12-28T13:52:36;16.70;58.00
28548;DHT22;68292;49.600;8.746;2023-12-28T13:55:07;16.70;58.10
28548;DHT22;68292;49.600;8.746;2023-12-28T13:57:36;16.70;58.20
28548;DHT22;68292;49.600;8.746;2023-12-28T14:00:06;16.60;58.10
28548;DHT22;68292;49.600;8.746;2023-12-28T14:02:40;16.70;58.20
28548;DHT22;68292;49.600;8.746;2023-12-28T14:05:09;16.70;58.20
28548;DHT22;68292;49.600;8.746;2023-12-28T14:07:38;16.60;58.10
28548;DHT22;68292;49.600;8.746;2023-12-28T14:10:11;16.60;58.10
28548;DHT22;68292;49.600;8.746;2023-12-28T14:12:40;16.60;58.10
28548;DHT22;68292;49.600;8.746;2023-12-28T14:15:09;16.60;58.10
28548;DHT22;68292;49.600;8.746;2023-12-28T14:17:38;16.60;58.10
28548;DHT22;68292;49.600;8.746;2023-12-28T14:20:08;16.60;58.00
28548;DHT22;68292;49.600;8.746;2023-12-28T14:22:39;16.60;58.10
28548;DHT22;68292;49.600;8.746;2023-12-28T14:25:12;16.60;58.10
28548;DHT22;68292;49.600;8.746;2023-12-28T14:27:42;16.60;58.10
28548;DHT22;68292;49.600;8.746;2023-12-28T14:30:12;16.60;58.10
28548;DHT22;68292;49.600;8.746;2023-12-28T14:32:42;16.60;58.10
28548;DHT22;68292;49.600;8.746;2023-12-28T14:35:12;16.60;58.10
28548;DHT22;68292;49.600;8.746;2023-12-28T14:37:43;16.60;58.10
28548;DHT22;68292;49.600;8.746;2023-12-28T14:40:13;16.60;58.10
28548;DHT22;68292;49.600;8.746;2023-12-28T14:42:42;16.60;58.10
28548;DHT22;68292;49.600;8.746;2023-12-28T14:45:11;16.60;58.00
28548;DHT22;68292;49.600;8.746;2023-12-28T14:47:40;16.60;58.10
28548;DHT22;68292;49.600;8.746;2023-12-28T14:50:09;16.60;58.00
28548;DHT22;68292;49.600;8.746;2023-12-28T14:52:38;16.60;58.00
28548;DHT22;68292;49.600;8.746;2023-12-28T14:55:10;16.60;58.00
28548;DHT22;68292;49.600;8.746;2023-12-28T14:57:40;16.60;58.00
28548;DHT22;68292;49.600;8.746;2023-12-28T15:00:10;16.60;58.00
28548;DHT22;68292;49.600;8.746;2023-12-28T15:02:39;16.60;58.00
28548;DHT22;68292;49.600;8.746;2023-12-28T15:05:09;16.60;57.90
28548;DHT22;68292;49.600;8.746;2023-12-28T15:07:40;16.60;57.90
28548;DHT22;68292;49.600;8.746;2023-12-28T15:10:10;16.60;58.00
28548;DHT22;68292;49.600;8.746;2023-12-28T15:12:42;16.60;58.00
28548;DHT22;68292;49.600;8.746;2023-12-28T15:15:12;16.60;58.10
28548;DHT22;68292;49.600;8.746;2023-12-28T15:17:41;16.60;58.10
28548;DHT22;68292;49.600;8.746;2023-12-28T15:20:12;16.50;58.00
28548;DHT22;68292;49.600;8.746;2023-12-28T15:22:42;16.60;58.10
28548;DHT22;68292;49.600;8.746;2023-12-28T15:25:11;16.50;58.10
28548;DHT22;68292;49.600;8.746;2023-12-28T15:27:41;16.60;58.10
28548;DHT22;68292;49.600;8.746;2023-12-28T15:30:10;16.50;58.00
28548;DHT22;68292;49.600;8.746;2023-12-28T15:32:40;16.50;57.90
28548;DHT22;68292;49.600;8.746;2023-12-28T15:35:12;16.60;57.90
28548;DHT22;68292;49.600;8.746;2023-12-28T15:37:41;16.50;57.90
28548;DHT22;68292;49.600;8.746;2023-12-28T15:40:10;16.50;57.70
28548;DHT22;68292;49.600;8.746;2023-12-28T15:42:41;16.50;57.70
28548;DHT22;68292;49.600;8.746;2023-12-28T15:45:14;16.50;57.70